createdAt,value
2023-03-25T00:01:19.154Z,4.25
2023-03-25T00:03:53.413Z,4.87
2023-03-25T00:06:26.744Z,6.50
2023-03-25T00:09:02.232Z,8.33
2023-03-25T00:11:36.429Z,7.50
2023-03-25T00:14:11.238Z,6.62
2023-03-25T00:16:46.229Z,4.05
2023-03-25T00:19:21.380Z,4.20
2023-03-25T00:21:55.021Z,3.27
2023-03-25T00:24:28.857Z,3.47
2023-03-25T00:27:02.663Z,3.08
2023-03-25T00:29:36.491Z,4.28
2023-03-25T00:32:09.972Z,3.83
2023-03-25T00:34:44.970Z,4.00
2023-03-25T00:37:20.224Z,4.12
2023-03-25T00:39:53.800Z,3.33
2023-03-25T00:42:27.314Z,3.55
2023-03-25T00:45:01.008Z,3.40
2023-03-25T00:47:34.532Z,3.83
2023-03-25T00:50:09.944Z,4.12
2023-03-25T00:52:43.376Z,3.15
2023-03-25T00:55:17.337Z,4.03
2023-03-25T00:57:50.858Z,3.55
2023-03-25T01:00:24.707Z,3.37
2023-03-25T01:02:58.472Z,4.50
2023-03-25T01:05:32.107Z,3.35
2023-03-25T01:08:06.306Z,3.70
2023-03-25T01:10:39.634Z,4.05
2023-03-25T01:13:12.765Z,3.87
2023-03-25T01:15:46.088Z,3.25
2023-03-25T01:18:19.654Z,3.17
2023-03-25T01:20:53.166Z,3.62
2023-03-25T01:23:26.485Z,4.00
2023-03-25T01:26:01.369Z,3.95
2023-03-25T01:28:34.730Z,4.30
2023-03-25T01:31:13.325Z,4.22
2023-03-25T01:33:46.967Z,3.55
2023-03-25T01:36:21.542Z,6.10
2023-03-25T01:38:54.910Z,4.80
2023-03-25T01:41:39.140Z,4.90
2023-03-25T01:44:10.396Z,4.87
2023-03-25T01:46:45.597Z,5.03
2023-03-25T01:49:24.060Z,4.92
2023-03-25T01:52:00.966Z,4.45
2023-03-25T01:54:35.053Z,5.33
2023-03-25T01:57:10.458Z,4.33
2023-03-25T01:59:44.697Z,3.47
2023-03-25T02:02:19.460Z,3.95
2023-03-25T02:04:57.902Z,4.83
2023-03-25T02:07:34.416Z,3.00
2023-03-25T02:10:11.248Z,3.33
2023-03-25T02:12:45.928Z,4.97
2023-03-25T02:15:21.078Z,4.37
2023-03-25T02:18:14.860Z,4.05
2023-03-25T02:21:37.706Z,4.10
2023-03-25T02:24:37.164Z,3.75
2023-03-25T02:27:28.483Z,3.25
2023-03-25T02:30:32.541Z,3.25
2023-03-25T02:33:41.919Z,4.28
2023-03-25T02:39:27.973Z,4.25
2023-03-25T02:42:04.284Z,4.53
2023-03-25T02:44:41.762Z,5.65
2023-03-25T02:47:17.946Z,5.10
2023-03-25T02:49:54.938Z,4.53
2023-03-25T02:52:31.506Z,3.98
2023-03-25T02:55:10.782Z,4.00
2023-03-25T02:57:47.824Z,4.30
2023-03-25T03:00:26.912Z,5.10
2023-03-25T03:03:02.803Z,3.95
2023-03-25T03:05:40.036Z,5.83
2023-03-25T03:08:25.001Z,4.20
2023-03-25T03:11:02.619Z,5.10
2023-03-25T03:13:41.810Z,3.75
2023-03-25T03:16:18.384Z,4.20
2023-03-25T03:18:56.993Z,4.45
2023-03-25T03:21:33.291Z,3.52
2023-03-25T03:24:09.926Z,4.37
2023-03-25T03:26:47.123Z,4.15
2023-03-25T03:29:23.499Z,5.28
2023-03-25T03:32:06.564Z,3.75
2023-03-25T03:34:39.733Z,4.30
2023-03-25T03:39:47.588Z,4.58
2023-03-25T03:45:07.210Z,4.50
2023-03-25T03:47:43.695Z,3.40
2023-03-25T03:50:20.665Z,4.58
2023-03-25T03:52:57.409Z,4.60
2023-03-25T03:55:36.029Z,3.15
2023-03-25T03:58:15.409Z,4.10
2023-03-25T04:00:52.198Z,5.22
2023-03-25T04:03:28.584Z,4.08
2023-03-25T04:06:07.376Z,3.27
2023-03-25T04:08:44.654Z,3.75
2023-03-25T04:11:21.245Z,4.00
2023-03-25T04:13:57.021Z,4.05
2023-03-25T04:16:33.979Z,3.50
2023-03-25T04:19:07.351Z,3.98
2023-03-25T04:21:41.739Z,4.08
2023-03-25T04:24:17.080Z,4.80
2023-03-25T04:26:52.189Z,3.87
2023-03-25T04:29:25.755Z,3.92
2023-03-25T04:31:59.488Z,4.20
2023-03-25T04:34:32.949Z,4.37
2023-03-25T04:37:09.780Z,4.28
2023-03-25T04:39:42.920Z,4.97
2023-03-25T04:42:17.966Z,4.53
2023-03-25T04:44:51.070Z,4.83
2023-03-25T04:47:26.218Z,4.42
2023-03-25T04:49:59.346Z,4.10
2023-03-25T04:52:34.761Z,5.10
2023-03-25T04:55:10.731Z,4.28
2023-03-25T04:57:43.920Z,4.10
2023-03-25T05:00:19.788Z,4.95
2023-03-25T05:02:55.336Z,3.80
2023-03-25T05:05:28.730Z,5.47
2023-03-25T05:08:02.196Z,4.33
2023-03-25T05:10:36.570Z,3.98
2023-03-25T05:13:11.300Z,4.08
2023-03-25T05:15:44.779Z,4.12
2023-03-25T05:18:19.022Z,4.50
2023-03-25T05:20:53.657Z,4.15
2023-03-25T05:23:27.328Z,4.83
2023-03-25T05:26:00.583Z,4.15
2023-03-25T05:28:34.001Z,4.58
2023-03-25T05:31:08.776Z,4.37
2023-03-25T05:33:43.504Z,4.83
2023-03-25T05:36:17.239Z,5.25
2023-03-25T05:38:50.863Z,4.15
2023-03-25T05:41:26.493Z,4.87
2023-03-25T05:44:00.621Z,5.80
2023-03-25T05:46:34.621Z,5.40
2023-03-25T05:49:07.914Z,5.08
2023-03-25T05:51:42.100Z,4.70
2023-03-25T05:54:15.255Z,4.45
2023-03-25T05:56:48.776Z,4.60
2023-03-25T05:59:22.210Z,4.22
2023-03-25T06:01:55.965Z,5.05
2023-03-25T06:04:29.693Z,5.33
2023-03-25T06:07:04.024Z,4.95
2023-03-25T06:09:37.535Z,4.78
2023-03-25T06:12:11.170Z,6.08
2023-03-25T06:14:45.919Z,5.87
2023-03-25T06:17:22.170Z,5.62
2023-03-25T06:19:55.580Z,5.67
2023-03-25T06:22:29.082Z,5.65
2023-03-25T06:25:04.068Z,4.80
2023-03-25T06:27:38.338Z,5.67
2023-03-25T06:30:14.873Z,5.28
2023-03-25T06:32:50.640Z,6.42
2023-03-25T06:35:24.479Z,5.42
2023-03-25T06:37:58.064Z,5.30
2023-03-25T06:40:33.196Z,5.22
2023-03-25T06:43:07.644Z,5.78
2023-03-25T06:46:01.783Z,6.12
2023-03-25T06:48:38.162Z,6.22
2023-03-25T06:51:12.209Z,5.37
2023-03-25T06:53:45.416Z,6.95
2023-03-25T06:56:19.197Z,7.42
2023-03-25T06:58:52.460Z,6.45
2023-03-25T07:01:26.188Z,7.55
2023-03-25T07:03:59.591Z,6.80
2023-03-25T07:06:33.986Z,6.67
2023-03-25T07:09:07.770Z,7.50
2023-03-25T07:11:41.413Z,7.03
2023-03-25T07:14:14.735Z,7.22
2023-03-25T07:16:47.432Z,7.22
2023-03-25T07:19:21.150Z,7.60
2023-03-25T07:21:54.499Z,7.60
2023-03-25T07:24:28.085Z,7.83
2023-03-25T07:27:01.500Z,7.45
2023-03-25T07:29:35.406Z,7.20
2023-03-25T07:37:14.589Z,10.63
2023-03-25T07:39:48.135Z,9.93
2023-03-25T07:42:21.590Z,8.85
2023-03-25T07:44:59.300Z,9.10
2023-03-25T07:47:34.568Z,10.60
2023-03-25T07:50:09.920Z,8.28
2023-03-25T07:52:43.247Z,9.63
2023-03-25T07:55:17.918Z,11.18
2023-03-25T07:57:51.297Z,9.65
2023-03-25T08:00:25.211Z,10.40
2023-03-25T08:02:58.576Z,9.68
2023-03-25T08:05:32.402Z,7.67
2023-03-25T08:08:07.787Z,10.25
2023-03-25T08:10:43.010Z,11.85
2023-03-25T08:13:16.817Z,12.35
2023-03-25T08:15:50.475Z,11.85
2023-03-25T08:18:24.083Z,12.60
2023-03-25T08:20:57.512Z,14.30
2023-03-25T08:23:31.712Z,14.90
2023-03-25T08:28:39.169Z,10.60
2023-03-25T08:31:12.668Z,12.07
2023-03-25T08:33:46.150Z,11.93
2023-03-25T08:36:22.223Z,12.05
2023-03-25T08:38:56.002Z,10.25
2023-03-25T08:41:29.537Z,9.48
2023-03-25T08:46:35.362Z,12.05
2023-03-25T08:49:08.949Z,10.63
2023-03-25T08:51:42.296Z,11.28
2023-03-25T08:54:16.150Z,11.38
2023-03-25T08:56:49.859Z,11.93
2023-03-25T08:59:23.112Z,10.70
2023-03-25T09:01:58.792Z,12.85
2023-03-25T09:04:32.837Z,13.10
2023-03-25T09:07:11.770Z,11.50
2023-03-25T09:09:43.046Z,12.05
2023-03-25T09:12:27.302Z,10.18
2023-03-25T09:15:03.168Z,13.20
2023-03-25T09:17:36.806Z,14.95
2023-03-25T09:20:12.200Z,11.95
2023-03-25T09:22:45.695Z,11.63
2023-03-25T09:25:19.584Z,11.75
2023-03-25T09:27:53.129Z,12.90
2023-03-25T09:30:26.515Z,14.13
2023-03-25T09:33:00.165Z,12.80
2023-03-25T09:35:33.852Z,13.28
2023-03-25T09:38:07.602Z,12.93
2023-03-25T09:40:43.785Z,13.15
2023-03-25T09:43:26.609Z,15.43
2023-03-25T09:46:01.446Z,14.50
2023-03-25T09:48:38.416Z,12.45
2023-03-25T09:51:15.584Z,13.30
2023-03-25T09:53:52.239Z,13.33
2023-03-25T09:56:28.802Z,14.53
2023-03-25T09:59:05.317Z,13.80
2023-03-25T10:01:43.473Z,11.08
2023-03-25T10:04:39.160Z,12.43
2023-03-25T10:07:17.378Z,14.28
2023-03-25T10:09:54.245Z,13.98
2023-03-25T10:12:35.896Z,11.83
2023-03-25T10:15:21.406Z,14.40
2023-03-25T10:18:08.697Z,17.55
2023-03-25T10:20:48.211Z,15.58
2023-03-25T10:23:25.835Z,13.53
2023-03-25T10:26:02.351Z,15.48
2023-03-25T10:28:38.912Z,14.10
2023-03-25T10:31:16.060Z,12.30
2023-03-25T10:33:53.214Z,15.25
2023-03-25T10:36:30.316Z,14.13
2023-03-25T10:39:06.077Z,11.67
2023-03-25T10:41:43.594Z,11.88
2023-03-25T10:44:17.158Z,13.60
2023-03-25T10:46:53.433Z,13.28
2023-03-25T10:49:29.943Z,13.38
2023-03-25T10:52:05.117Z,13.30
2023-03-25T10:54:41.745Z,11.53
2023-03-25T10:57:19.056Z,12.70
2023-03-25T11:00:02.101Z,10.63
2023-03-25T11:02:37.625Z,13.38
2023-03-25T11:05:15.936Z,12.07
2023-03-25T11:07:53.145Z,12.33
2023-03-25T11:10:29.380Z,14.07
2023-03-25T11:13:06.756Z,11.88
2023-03-25T11:15:42.057Z,10.90
2023-03-25T11:21:01.405Z,10.75
2023-03-25T11:23:37.242Z,10.43
2023-03-25T11:26:14.810Z,10.50
2023-03-25T11:28:50.780Z,12.13
2023-03-25T11:31:26.572Z,10.90
2023-03-25T11:34:12.997Z,9.15
2023-03-25T11:36:55.486Z,12.47
2023-03-25T11:39:33.105Z,11.93
2023-03-25T11:42:17.463Z,11.28
2023-03-25T11:44:54.897Z,11.53
2023-03-25T11:47:30.875Z,13.32
2023-03-25T11:50:05.598Z,12.98
2023-03-25T11:52:42.981Z,11.48
2023-03-25T11:55:21.225Z,10.28
2023-03-25T11:57:56.623Z,14.55
2023-03-25T12:00:37.404Z,12.03
2023-03-25T12:03:20.786Z,11.20
2023-03-25T12:06:02.572Z,16.05
2023-03-25T12:08:44.608Z,16.23
2023-03-25T12:11:21.774Z,18.80
2023-03-25T12:14:09.009Z,19.77
2023-03-25T12:16:45.859Z,13.05
2023-03-25T12:19:23.609Z,15.88
2023-03-25T12:24:44.868Z,8.90
2023-03-25T12:27:29.478Z,11.53
2023-03-25T12:30:07.630Z,11.15
2023-03-25T12:35:54.145Z,11.70
2023-03-25T12:38:36.552Z,9.78
2023-03-25T12:41:19.958Z,8.90
2023-03-25T12:44:06.959Z,10.08
2023-03-25T12:47:00.775Z,13.22
2023-03-25T12:49:46.353Z,13.13
2023-03-25T12:52:24.082Z,11.33
2023-03-25T12:55:07.643Z,11.90
2023-03-25T12:57:49.144Z,11.95
2023-03-25T13:00:33.970Z,13.45
2023-03-25T13:06:24.840Z,11.22
2023-03-25T13:09:01.263Z,10.80
2023-03-25T13:11:37.265Z,12.50
2023-03-25T13:14:14.737Z,12.37
2023-03-25T13:16:51.919Z,13.15
2023-03-25T13:19:28.338Z,10.45
2023-03-25T13:22:04.731Z,11.88
2023-03-25T13:24:43.252Z,14.78
2023-03-25T13:27:17.528Z,15.28
2023-03-25T13:29:53.880Z,15.78
2023-03-25T13:32:30.369Z,13.35
2023-03-25T13:35:15.059Z,10.55
2023-03-25T13:37:53.147Z,9.85
2023-03-25T13:40:29.494Z,14.85
2023-03-25T13:43:05.995Z,16.05
2023-03-25T13:45:44.825Z,15.03
2023-03-25T13:48:25.066Z,10.58
2023-03-25T13:51:03.054Z,10.78
2023-03-25T13:53:39.743Z,11.68
2023-03-25T13:56:36.381Z,13.72
2023-03-25T13:59:27.532Z,10.48
2023-03-25T14:02:25.415Z,11.68
2023-03-25T14:05:19.557Z,11.65
2023-03-25T14:08:33.179Z,14.23
2023-03-25T14:11:16.909Z,9.90
2023-03-25T14:13:53.434Z,11.22
2023-03-25T14:16:30.724Z,12.53
2023-03-25T14:19:06.792Z,11.43
2023-03-25T14:21:46.052Z,12.07
2023-03-25T14:24:22.465Z,9.08
2023-03-25T14:26:58.901Z,11.53
2023-03-25T14:29:38.440Z,13.28
2023-03-25T14:32:32.925Z,10.75
2023-03-25T14:35:41.834Z,11.12
2023-03-25T14:38:53.804Z,11.50
2023-03-25T14:41:57.832Z,9.83
2023-03-25T14:44:33.264Z,10.63
2023-03-25T14:47:30.423Z,8.93
2023-03-25T14:50:13.168Z,9.95
2023-03-25T14:52:48.716Z,11.63
2023-03-25T14:55:24.316Z,10.45
2023-03-25T14:58:02.083Z,10.50
2023-03-25T15:00:38.959Z,8.88
2023-03-25T15:03:16.168Z,7.47
2023-03-25T15:05:58.198Z,10.65
2023-03-25T15:08:34.984Z,8.98
2023-03-25T15:11:11.970Z,10.88
2023-03-25T15:13:49.704Z,10.87
2023-03-25T15:16:30.612Z,10.30
2023-03-25T15:19:07.629Z,11.18
2023-03-25T15:22:20.481Z,11.63
2023-03-25T15:24:59.988Z,9.98
2023-03-25T15:27:53.006Z,9.98
2023-03-25T15:30:46.327Z,11.40
2023-03-25T15:33:26.119Z,10.98
2023-03-25T15:36:08.628Z,11.28
2023-03-25T15:39:00.397Z,9.93
2023-03-25T15:41:47.104Z,9.65
2023-03-25T15:44:58.892Z,10.65
2023-03-25T15:48:10.034Z,10.78
2023-03-25T15:54:03.377Z,9.58
2023-03-25T15:56:40.875Z,9.75
2023-03-25T15:59:19.484Z,11.15
2023-03-25T16:01:54.616Z,9.03
2023-03-25T16:04:32.225Z,8.78
2023-03-25T16:07:09.173Z,9.33
2023-03-25T16:09:49.285Z,9.47
2023-03-25T16:12:25.174Z,10.85
2023-03-25T16:14:58.554Z,10.40
2023-03-25T16:17:35.222Z,10.08
2023-03-25T16:20:13.459Z,9.80
2023-03-25T16:22:51.125Z,10.15
2023-03-25T16:25:28.219Z,11.22
2023-03-25T16:28:07.255Z,9.68
2023-03-25T16:30:42.897Z,10.43
2023-03-25T16:33:20.564Z,10.70
2023-03-25T16:35:57.123Z,10.40
2023-03-25T16:38:31.764Z,9.83
2023-03-25T16:41:07.585Z,9.93
2023-03-25T16:43:41.456Z,8.83
2023-03-25T16:46:16.442Z,10.05
2023-03-25T16:48:54.384Z,10.70
2023-03-25T16:51:34.412Z,11.15
2023-03-25T16:54:13.790Z,10.60
2023-03-25T16:56:48.424Z,10.90
2023-03-25T16:59:25.179Z,9.38
2023-03-25T17:02:01.719Z,11.40
2023-03-25T17:04:42.194Z,11.78
2023-03-25T17:07:20.020Z,12.25
2023-03-25T17:12:35.420Z,10.10
2023-03-25T17:15:17.601Z,9.20
2023-03-25T17:17:56.721Z,11.28
2023-03-25T17:20:34.732Z,10.90
2023-03-25T17:23:10.964Z,9.90
2023-03-25T17:25:54.981Z,10.70
2023-03-25T17:28:35.381Z,10.35
2023-03-25T17:31:26.033Z,10.30
2023-03-25T17:36:47.802Z,13.15
2023-03-25T17:39:23.466Z,10.23
2023-03-25T17:42:01.730Z,13.28
2023-03-25T17:44:37.477Z,12.35
2023-03-25T17:47:14.724Z,15.40
2023-03-25T17:49:49.169Z,14.87
2023-03-25T17:52:22.610Z,15.38
2023-03-25T17:54:55.871Z,10.08
2023-03-25T17:57:38.615Z,13.43
2023-03-25T18:00:19.921Z,9.10
2023-03-25T18:03:03.360Z,10.07
2023-03-25T18:05:37.281Z,11.43
2023-03-25T18:08:14.237Z,10.00
2023-03-25T18:10:47.844Z,10.20
2023-03-25T18:13:23.928Z,8.50
2023-03-25T18:15:58.878Z,8.55
2023-03-25T18:18:32.668Z,9.18
2023-03-25T18:21:15.709Z,9.60
2023-03-25T18:23:49.486Z,8.63
2023-03-25T18:26:23.173Z,9.70
2023-03-25T18:28:56.580Z,9.68
2023-03-25T18:31:30.573Z,9.73
2023-03-25T18:34:04.576Z,10.25
2023-03-25T18:36:38.397Z,9.68
2023-03-25T18:39:16.852Z,10.50
2023-03-25T18:41:50.707Z,8.28
2023-03-25T18:44:26.119Z,9.20
2023-03-25T18:46:59.451Z,9.60
2023-03-25T18:49:33.092Z,10.10
2023-03-25T18:52:07.123Z,9.68
2023-03-25T18:54:41.380Z,9.85
2023-03-25T18:57:15.120Z,9.53
2023-03-25T18:59:48.458Z,9.93
2023-03-25T19:02:21.929Z,9.45
2023-03-25T19:05:00.959Z,9.48
2023-03-25T19:07:32.347Z,8.90
2023-03-25T19:10:06.190Z,10.82
2023-03-25T19:12:39.760Z,9.63
2023-03-25T19:15:15.397Z,10.55
2023-03-25T19:17:49.832Z,10.85
2023-03-25T19:20:25.380Z,10.15
2023-03-25T19:22:59.339Z,8.95
2023-03-25T19:25:32.985Z,10.68
2023-03-25T19:28:06.930Z,9.00
2023-03-25T19:30:40.975Z,10.58
2023-03-25T19:33:15.556Z,11.08
2023-03-25T19:35:54.436Z,10.63
2023-03-25T19:38:28.840Z,11.68
2023-03-25T19:41:08.485Z,10.15
2023-03-25T19:43:42.363Z,11.18
2023-03-25T19:46:16.047Z,11.40
2023-03-25T19:48:49.464Z,10.68
2023-03-25T19:51:22.880Z,11.65
2023-03-25T19:53:57.805Z,10.48
2023-03-25T19:56:31.595Z,12.43
2023-03-25T19:59:05.269Z,10.88
2023-03-25T20:01:38.838Z,10.93
2023-03-25T20:04:14.958Z,11.12
2023-03-25T20:06:48.793Z,10.05
2023-03-25T20:09:41.901Z,10.25
2023-03-25T20:12:16.842Z,10.58
2023-03-25T20:14:50.987Z,10.03
2023-03-25T20:17:24.641Z,9.08
2023-03-25T20:19:58.373Z,9.33
2023-03-25T20:22:33.025Z,8.88
2023-03-25T20:25:07.931Z,8.98
2023-03-25T20:27:42.102Z,10.35
2023-03-25T20:30:18.848Z,10.40
2023-03-25T20:32:52.580Z,9.73
2023-03-25T20:35:49.835Z,10.63
2023-03-25T20:38:23.686Z,9.73
2023-03-25T20:40:57.562Z,10.82
2023-03-25T20:43:31.432Z,10.53
2023-03-25T20:46:05.507Z,12.13
2023-03-25T20:48:38.996Z,10.28
2023-03-25T20:51:12.912Z,11.50
2023-03-25T20:53:46.528Z,12.05
2023-03-25T20:56:19.879Z,11.33
2023-03-25T20:58:54.097Z,10.48
2023-03-25T21:01:28.040Z,11.60
2023-03-25T21:04:02.442Z,10.30
2023-03-25T21:06:35.915Z,11.28
2023-03-25T21:09:10.760Z,10.88
2023-03-25T21:11:44.278Z,10.05
2023-03-25T21:14:19.160Z,10.80
2023-03-25T21:16:54.478Z,10.20
2023-03-25T21:19:28.293Z,10.60
2023-03-25T21:22:01.939Z,11.80
2023-03-25T21:24:35.992Z,11.20
2023-03-25T21:27:09.381Z,10.60
2023-03-25T21:29:42.513Z,10.90
2023-03-25T21:32:16.011Z,10.13
2023-03-25T21:34:49.720Z,12.55
2023-03-25T21:37:23.248Z,9.13
2023-03-25T21:39:58.313Z,9.43
2023-03-25T21:42:32.481Z,10.15
2023-03-25T21:45:08.082Z,10.25
2023-03-25T21:47:41.874Z,9.43
2023-03-25T21:50:16.634Z,10.18
2023-03-25T21:52:50.345Z,10.38
2023-03-25T21:55:24.167Z,10.40
2023-03-25T21:57:59.818Z,10.60
2023-03-25T22:00:33.532Z,10.85
2023-03-25T22:03:08.964Z,10.65
2023-03-25T22:05:42.734Z,10.53
2023-03-25T22:08:17.092Z,10.48
2023-03-25T22:10:50.796Z,10.95
2023-03-25T22:13:24.488Z,11.93
2023-03-25T22:15:57.833Z,10.45
2023-03-25T22:18:32.710Z,9.88
2023-03-25T22:21:12.534Z,12.37
2023-03-25T22:23:47.010Z,10.88
2023-03-25T22:26:21.288Z,10.93
2023-03-25T22:28:58.802Z,11.50
2023-03-25T22:31:34.000Z,11.08
2023-03-25T22:34:11.779Z,10.50
2023-03-25T22:36:48.744Z,10.60
2023-03-25T22:39:25.028Z,11.12
2023-03-25T22:41:58.686Z,10.75
2023-03-25T22:44:32.197Z,11.05
2023-03-25T22:47:06.081Z,11.18
2023-03-25T22:49:39.721Z,10.88
2023-03-25T22:52:13.118Z,10.40
2023-03-25T22:54:46.958Z,11.35
2023-03-25T22:57:21.494Z,13.25
2023-03-25T22:59:55.350Z,11.60
2023-03-25T23:02:29.350Z,12.78
2023-03-25T23:05:03.331Z,12.75
2023-03-25T23:07:37.141Z,11.40
2023-03-25T23:10:13.298Z,10.55
2023-03-25T23:12:47.122Z,13.05
2023-03-25T23:15:20.692Z,13.85
2023-03-25T23:17:53.913Z,13.83
2023-03-25T23:20:28.094Z,14.70
2023-03-25T23:23:02.873Z,14.53
2023-03-25T23:25:36.353Z,15.38
2023-03-25T23:28:10.404Z,14.60
2023-03-25T23:30:46.575Z,14.93
2023-03-25T23:33:20.530Z,14.85
2023-03-25T23:35:54.214Z,12.68
2023-03-25T23:38:27.796Z,14.13
2023-03-25T23:41:06.342Z,12.20
2023-03-25T23:43:41.371Z,11.78
2023-03-25T23:46:17.131Z,11.80
2023-03-25T23:48:52.757Z,12.10
2023-03-25T23:51:27.218Z,13.78
2023-03-25T23:54:00.665Z,11.68
2023-03-25T23:56:34.597Z,13.60
2023-03-25T23:59:08.241Z,14.07
